Thornton, CO

01:37 PM MDT af August 22, 2014 (GMT -0600)
Northmoor Subdivision - Central Broomfield | Change Station
CLOSE
Current Station
Personal Weather Stations
Location: Broomfield, CO
Elevation: 5384 ft
Nearby Weather Stations

Elev 5384 ft 39.94 °N, 105.05 °W | Updated 7 seconds ago

Overcast
farvolknt
73.2 °f
Feels Like 77 °f
N
1.6
vint baytevdik vint from dmz
Gusts 5.4 mph

haynt
High -- | Low -- °f
--% Chance of Precip.
Yesterday
High -- | Low -- °f
Precip. -- in
6:18 AM 7:46 PM
Waning Crescent, 7% visible
druk 30.16 in
zeevdikeyt 30.0 mayln
Clouds tsevorfene volkns 8000 ft
farvolknt 12000 ft
hitsindeks 77 °f
toypunkt 57 °f
faykhtkeyt 56%
Rainfall 0.07 in
Snow Depth Not available.
UV 3 out of 12
Pollen 9.60 out of 12
Ozone Good
PM2.5 Good
Flu Activity Not available.
METAR KBJC 221847Z 00000KT 30SM SCT080 OVC120 21/12 A3016

More Conditions Fewer Conditions

druk 30.16 in
zeevdikeyt 30.0 mayln
Clouds tsevorfene volkns 8000 ft
farvolknt 12000 ft
hitsindeks 77 °f
toypunkt 57 °f
faykhtkeyt 56%
Rainfall 0.07 in
Snow Depth Not available.
UV 3 out of 12
Pollen 9.60 out of 12
Ozone Good
PM2.5 Good
Flu Activity Not available.
METAR KBJC 221847Z 00000KT 30SM SCT080 OVC120 21/12 A3016

More Conditions Fewer Conditions

Nowcast | as of 1:35 PM MDT on August 22, 2014

Rain showers will continue to move over portions of the Front Range and northern foothills through the late afternoon. There will be periods of heavier rainfall that could reach up to half an inch in 30 minutes this afternoon but rainfall amounts will generally be around a tenth of an inch.

×

10-Day Weather Forecast

Almanac

Astronomy

Aug. 22, 2014 Rise Set
Actual Time 6:18 AM MDT 7:46 PM MDT
Civil Twilight 5:50 AM MDT 8:15 PM MDT
Nautical Twilight 5:16 AM MDT 8:49 PM MDT
Astronomical Twilight 4:39 AM MDT 9:25 PM MDT
Moon 3:43 AM MDT 5:56 PM MDT
Length Of Visible Light 14h 24m
Length of Day
13h 28m
Tomorrow will be 2m 25s shorter.
Waning Crescent, 7% of the Moon is Illuminated
haynt
Waning Crescent
Aug 25
New
Sep 2
First Quarter
Sep 8
Full
Sep 15
Last Quarter

Today's Extremes

State Highs State Lows

Community

WunderPhotos

Upload Photos

1,746,226 photos uploaded!

Nearby

Air Quality

  Air Quality AQ Index Pollutant
Yesterday Moderate
OZONE
Yesterday Good
PM10
Current Good
OZONE
Current Good
PM2.5
fraytik Good
OZONE
fraytik Good
PM2.5

Snow Depth

Station Depth Elevation
Niwot 0 in 9910 ft
University Camp 0 in 10300 ft
Wild Basin 0 in 9560 ft
Echo Lake 0 in 10600 ft
Berthoud Summit 0 in 11300 ft

Earthquake Activity

City Distance Mag. Time & Date
No recent earthquake activity has been reported nearby.
Minimum magnitude displayed is 2.5.

Coastal Water Temperatures

plats temperatur
No Stations Reporting

Nearby Weather Stations